Eagle Kuching — 9V8132 — position and weather

sailwx.info

Track history (hours):
 
Tides and Currents Weather Stations Pressure Air Temp Water Temp Dewpoint Dewpoint Depression Visibility Wind Speed Wind Dir Waves Ship Positions

Eagle Kuching

Last reported at 2018-May-25 12:06 UTC. Time now 2018-May-25 14:50 UTC.
Position N 29°24' W 093°38'.

Length 243 m; draft 8.8 m.

Type: Tanker. MMSI: 565108000.

Date/timePositionNaut miles runAvg speedWind from/ knotsBaromVisibWave heightAir tempDewpointWater temp
2018-May-25 12:06N 29°24' W 093°38'0 0.2
2018-May-25 12:00N 29°24' W 093°38'0 0.1
2018-May-25 11:29N 29°24' W 093°38'1 2.3
2018-May-25 11:00N 29°23' W 093°39'3 6.4
2018-May-25 10:30N 29°20' W 093°40'711.1
2018-May-25 09:50N 29°13' W 093°40'3 0.1
2018-May-23 19:33N 29°10' W 093°42'112.4
2018-May-23 19:26N 29°11' W 093°41'1111.3
2018-May-23 18:30N 29°22' W 093°40'5 9.4
2018-May-23 17:58N 29°27' W 093°40'510.0
2018-May-23 17:30N 29°31' W 093°42'611.7
2018-May-23 17:00N 29°35' W 093°47'510.1
2018-May-23 16:30N 29°40' W 093°50'4 7.9
2018-May-23 16:00N 29°43' W 093°52'4 7.0
2018-May-23 15:30N 29°46' W 093°54'3 6.9
2018-May-23 15:00N 29°48' W 093°57'3 6.3
2018-May-23 14:30N 29°51' W 093°57'3 6.0
2018-May-23 14:00N 29°54' W 093°54'3 6.4
2018-May-23 13:30N 29°56' W 093°52'3 5.3
2018-May-23 13:00N 29°59' W 093°52'3 5.5
2018-May-23 12:30N 29°59' W 093°55'3 5.1
2018-May-23 12:00N 30°01' W 093°58'2 3.4
2018-May-23 11:30N 30°01' W 093°60'0 0.1
2018-May-23 11:00N 30°01' W 093°60'0 0.0
2018-May-23 10:30N 30°01' W 093°60'0 0.0
2018-May-23 10:00N 30°01' W 093°60'0 0.0
2018-May-23 09:30N 30°01' W 093°60'0 0.0
2018-May-23 09:00N 30°01' W 093°60'0 0.0
2018-May-23 08:30N 30°01' W 093°60'0 0.0
2018-May-23 08:00N 30°01' W 093°60'0 0.0
2018-May-23 07:30N 30°01' W 093°60'0 0.0
2018-May-23 07:00N 30°01' W 093°60'0 0.0
2018-May-23 06:30N 30°01' W 093°60'0 0.0
2018-May-23 06:00N 30°01' W 093°60'0 0.0
2018-May-23 05:30N 30°01' W 093°60'0 0.0
2018-May-23 05:00N 30°01' W 093°60'0 0.0
2018-May-23 04:30N 30°01' W 093°60'0 0.0
2018-May-23 04:00N 30°01' W 093°60'0 0.0
2018-May-23 03:30N 30°01' W 093°60'0 0.0
2018-May-23 03:00N 30°01' W 093°60'0 0.0
2018-May-23 02:30N 30°01' W 093°60'0 0.0
2018-May-23 02:00N 30°01' W 093°60'0 0.0
2018-May-23 01:30N 30°01' W 093°60'0 0.0
2018-May-23 01:00N 30°01' W 093°60'0 0.0
2018-May-23 00:30N 30°01' W 093°60'0 0.0
2018-May-23 00:00N 30°01' W 093°60'0 0.0
2018-May-22 23:30N 30°01' W 093°60'0 0.0
2018-May-22 23:00N 30°01' W 093°60'0 0.0
2018-May-22 22:30N 30°01' W 093°60'0 0.0
2018-May-22 22:00N 30°01' W 093°60'0 0.0
2018-May-22 21:27N 30°01' W 093°60'0 0.0
2018-May-22 21:00N 30°01' W 093°60'0 0.0
2018-May-22 20:30N 30°01' W 093°60'0 0.0
2018-May-22 20:00N 30°01' W 093°60'0 0.0
2018-May-22 19:30N 30°01' W 093°60'0 0.0
2018-May-22 19:00N 30°01' W 093°60'0 0.0
2018-May-22 18:30N 30°01' W 093°60'0 0.0
2018-May-22 18:00N 30°01' W 093°60'0 0.0
2018-May-22 17:30N 30°01' W 093°60'0 0.0
2018-May-22 17:00N 30°01' W 093°60'0 0.0
2018-May-22 16:30N 30°01' W 093°60'0 0.0
2018-May-22 16:00N 30°01' W 093°60'0 0.0
2018-May-22 15:30N 30°01' W 093°60'0 0.0
2018-May-22 14:57N 30°01' W 093°60'0 0.0
2018-May-22 14:30N 30°01' W 093°60'0 0.0
2018-May-22 14:00N 30°01' W 093°60'0 0.0
2018-May-22 13:30N 30°01' W 093°60'0 0.0
2018-May-22 13:00N 30°01' W 093°60'0 0.0
2018-May-22 12:30N 30°01' W 093°60'0 0.0
2018-May-22 12:00N 30°01' W 093°60'0 0.0
2018-May-22 11:30N 30°01' W 093°60'0 0.0
2018-May-22 10:54N 30°01' W 093°60'0 0.0
2018-May-22 10:30N 30°01' W 093°60'0 0.0
2018-May-22 10:00N 30°01' W 093°60'0 0.0
2018-May-22 09:30N 30°01' W 093°60'0 0.0
2018-May-22 09:00N 30°01' W 093°60'0 0.0
2018-May-22 08:27N 30°01' W 093°60'0 0.0
2018-May-22 08:00N 30°01' W 093°60'0 0.0
2018-May-22 07:30N 30°01' W 093°60'0 0.0
2018-May-22 07:00N 30°01' W 093°60'0 0.0
2018-May-22 06:30N 30°01' W 093°60'0 0.0
2018-May-22 06:00N 30°01' W 093°60'0 0.0
2018-May-22 05:30N 30°01' W 093°60'0 0.0
2018-May-22 05:00N 30°01' W 093°60'0 0.0
2018-May-22 04:30N 30°01' W 093°60'0 0.0
2018-May-22 04:00N 30°01' W 093°60'0 0.0
2018-May-22 03:30N 30°01' W 093°60'0 0.0
2018-May-22 02:57N 30°01' W 093°60'0 0.0
2018-May-22 02:30N 30°01' W 093°60'0 0.0
2018-May-22 02:00N 30°01' W 093°60'0 0.0
2018-May-22 01:30N 30°01' W 093°60'0 0.0
2018-May-22 01:00N 30°01' W 093°60'0 0.0
2018-May-22 00:30N 30°01' W 093°60'0 0.0
2018-May-22 00:00N 30°01' W 093°60'0 0.0
2018-May-21 23:30N 30°01' W 093°60'0 0.0
2018-May-21 23:00N 30°01' W 093°60'0 0.1
2018-May-21 22:30N 30°01' W 093°60'2 3.4
2018-May-21 22:00N 30°01' W 093°58'3 5.6
2018-May-21 21:30N 29°59' W 093°55'3 6.4
2018-May-21 21:00N 29°59' W 093°52'3 5.7
2018-May-21 20:30N 29°56' W 093°52'3 6.6
2018-May-21 20:01N 29°53' W 093°55'3 6.5
2018-May-21 19:30N 29°51' W 093°57'4 8.1
2018-May-21 19:00N 29°47' W 093°57'4 8.2
2018-May-21 18:30N 29°44' W 093°53'4 8.9
2018-May-21 18:00N 29°41' W 093°50'510.4
2018-May-21 17:30N 29°36' W 093°48'3 5.6
2018-May-21 17:00N 29°34' W 093°46'1 1.8
2018-May-21 16:30N 29°33' W 093°45'1 1.4
2018-May-21 16:00N 29°33' W 093°45'2 4.5
2018-May-21 15:31N 29°33' W 093°43'1 1.3
2018-May-21 14:54N 29°34' W 093°43'0 0.0
2018-May-21 14:27N 29°34' W 093°43'0 0.0
2018-May-21 14:00N 29°34' W 093°43'0 0.0
2018-May-21 13:24N 29°34' W 093°43'0 0.0
2018-May-21 12:57N 29°34' W 093°43'0 0.0
2018-May-21 12:27N 29°34' W 093°43'0 0.0
2018-May-21 12:00N 29°34' W 093°43'0 0.0
2018-May-21 11:30N 29°34' W 093°43'0 0.0
2018-May-21 11:00N 29°34' W 093°43'0 0.0
2018-May-21 10:27N 29°34' W 093°43'0 0.0
2018-May-21 09:57N 29°34' W 093°43'0 0.0
2018-May-21 09:27N 29°34' W 093°43'0 0.0
2018-May-21 09:00N 29°34' W 093°43'0 0.0
2018-May-21 08:27N 29°34' W 093°43'0 0.0
2018-May-21 08:00N 29°34' W 093°43'0 0.0
2018-May-21 07:27N 29°34' W 093°43'0 0.0
2018-May-21 07:00N 29°34' W 093°43'0 0.0
2018-May-21 06:27N 29°34' W 093°43'0 0.0
2018-May-21 06:00N 29°34' W 093°43'0 0.0
2018-May-21 05:27N 29°34' W 093°43'0 0.0
2018-May-21 05:00N 29°34' W 093°43'0 0.1
2018-May-21 04:30N 29°34' W 093°43'0 0.0
2018-May-21 04:00N 29°34' W 093°43'0 0.0
2018-May-21 03:27N 29°34' W 093°43'0 0.0
2018-May-21 03:00N 29°34' W 093°43'0 0.2
2018-May-21 02:22N 29°34' W 093°43'0 0.4
2018-May-21 02:00N 29°33' W 093°43'1 2.2
2018-May-21 01:30N 29°33' W 093°44'4 7.8
2018-May-21 01:00N 29°31' W 093°48'612.3
2018-May-21 00:30N 29°29' W 093°55'612.0
2018-May-21 00:00N 29°26' W 094°01'713.5
2018-May-20 23:30N 29°21' W 094°07'2411.4
2018-May-20 21:22N 29°14' W 094°33'512.9
2018-May-20 21:00N 29°18' W 094°37'611.8
2018-May-20 20:30N 29°21' W 094°42'510.4
2018-May-20 20:00N 29°22' W 094°48'611.1
2018-May-20 19:29N 29°27' W 094°51'511.0
2018-May-20 19:00N 29°32' W 094°54'611.2
2018-May-20 18:30N 29°37' W 094°57'510.0
2018-May-20 18:00N 29°41' W 094°59'3 0.1
2018-May-18 16:26N 29°44' W 095°01'0 0.0
2018-May-18 16:00N 29°44' W 095°01'0 0.2
2018-May-18 15:30N 29°44' W 095°01'1 2.8
2018-May-18 15:00N 29°42' W 095°01'4 8.3
2018-May-18 14:30N 29°39' W 094°58'4 8.8
2018-May-18 14:00N 29°35' W 094°56'510.2
2018-May-18 13:30N 29°31' W 094°53'611.6
2018-May-18 13:00N 29°26' W 094°50'611.0
2018-May-18 12:30N 29°21' W 094°47'611.4
2018-May-18 12:00N 29°20' W 094°40'510.3
2018-May-18 11:30N 29°17' W 094°35'3 7.0
2018-May-18 11:00N 29°15' W 094°32'2 4.8
2018-May-18 10:30N 29°13' W 094°30'5 9.9
2018-May-18 10:00N 29°09' W 094°33'2 4.8
2018-May-18 09:30N 29°07' W 094°35'0 0.2
2018-May-18 08:59N 29°07' W 094°35'0 0.0
2018-May-18 08:29N 29°07' W 094°35'0 0.0
2018-May-18 07:59N 29°07' W 094°35'0 0.0
2018-May-18 07:29N 29°07' W 094°35'0 0.0
2018-May-18 06:59N 29°07' W 094°35'0 0.0
2018-May-18 06:29N 29°07' W 094°35'0 0.0
2018-May-18 05:59N 29°07' W 094°35'0 0.0
2018-May-18 05:29N 29°07' W 094°35'0 0.0
2018-May-18 04:59N 29°07' W 094°35'0 0.0
2018-May-18 04:29N 29°07' W 094°35'0 0.0
2018-May-18 03:59N 29°07' W 094°35'0 0.0
2018-May-18 03:26N 29°07' W 094°35'0 0.0
2018-May-18 02:56N 29°07' W 094°35'0 0.1
2018-May-18 02:29N 29°07' W 094°35'0 0.0
2018-May-18 01:59N 29°07' W 094°35'0 0.0
2018-May-18 01:26N 29°07' W 094°35'0 0.0
2018-May-18 00:59N 29°07' W 094°35'0 0.0
2018-May-18 00:29N 29°07' W 094°35'0 0.0
2018-May-17 23:59N 29°07' W 094°35'0 0.0
2018-May-17 23:29N 29°07' W 094°35'0 0.0
2018-May-17 22:59N 29°07' W 094°35'0 0.0
2018-May-17 22:26N 29°07' W 094°35'0 0.0
2018-May-17 21:59N 29°07' W 094°35'0 0.0
2018-May-17 21:29N 29°07' W 094°35'0 0.0
2018-May-17 20:59N 29°07' W 094°35'0 0.0
2018-May-17 20:26N 29°07' W 094°35'0 0.0
2018-May-17 19:47N 29°07' W 094°35'0 0.0
2018-May-17 19:29N 29°07' W 094°35'0 0.0
2018-May-17 18:59N 29°07' W 094°35'0 0.0
2018-May-17 18:23N 29°07' W 094°35'0 0.0
2018-May-17 17:35N 29°07' W 094°35'0 0.0
2018-May-17 17:20N 29°07' W 094°35'0 0.0
2018-May-17 15:08N 29°07' W 094°35'0 0.0
2018-May-17 14:53N 29°07' W 094°35'0 0.0
2018-May-17 14:17N 29°07' W 094°35'0 0.0
2018-May-17 13:59N 29°07' W 094°35'0 0.0
2018-May-17 12:11N 29°07' W 094°35'0 0.1
2018-May-17 11:44N 29°07' W 094°35'0 0.0
2018-May-17 11:26N 29°07' W 094°35'0 0.0
2018-May-17 06:56N 29°07' W 094°35'0 0.0
2018-May-17 06:26N 29°07' W 094°35'0 0.0
2018-May-17 05:59N 29°07' W 094°35'0 0.0
2018-May-17 05:23N 29°07' W 094°35'0 0.0
2018-May-17 04:59N 29°07' W 094°35'0 0.0
2018-May-17 04:26N 29°07' W 094°35'0 0.0
2018-May-17 03:59N 29°07' W 094°35'0 0.0
2018-May-17 03:29N 29°07' W 094°35'0 0.0
2018-May-17 02:53N 29°07' W 094°35'0 0.0
2018-May-17 02:29N 29°07' W 094°35'0 0.0
2018-May-17 01:59N 29°07' W 094°35'0 0.0
2018-May-17 01:29N 29°07' W 094°35'0 0.0
2018-May-17 00:59N 29°07' W 094°35'0 0.0
2018-May-17 00:29N 29°07' W 094°35'0 0.0
2018-May-16 23:59N 29°07' W 094°35'0 0.0
2018-May-16 23:29N 29°07' W 094°35'0 0.0
2018-May-16 22:59N 29°07' W 094°35'0 0.0
2018-May-16 22:29N 29°07' W 094°35'0 0.0
2018-May-16 21:59N 29°07' W 094°35'0 0.0
2018-May-16 21:29N 29°07' W 094°35'0 0.0
2018-May-16 20:59N 29°07' W 094°35'0 0.0
2018-May-16 20:29N 29°07' W 094°35'0 0.0
2018-May-16 19:59N 29°07' W 094°35'0 0.0
2018-May-16 19:29N 29°07' W 094°35'0 0.0
2018-May-16 18:38N 29°07' W 094°35'0 0.1
2018-May-16 18:29N 29°07' W 094°35'0 0.0
2018-May-16 17:56N 29°07' W 094°35'0 0.0
2018-May-16 17:08N 29°07' W 094°35'0 0.0
2018-May-16 16:38N 29°07' W 094°35'0 0.1
2018-May-16 16:29N 29°07' W 094°35'0 0.0
2018-May-16 15:59N 29°07' W 094°35'0 0.1
2018-May-16 15:29N 29°07' W 094°35'0 0.0
2018-May-16 14:59N 29°07' W 094°35'0 0.0
2018-May-16 14:29N 29°07' W 094°35'0 0.0
2018-May-16 13:56N 29°07' W 094°35'0 0.0
2018-May-16 13:29N 29°07' W 094°35'0 0.0
2018-May-16 12:59N 29°07' W 094°35'0 0.0
2018-May-16 12:29N 29°07' W 094°35'0 0.0
2018-May-16 11:59N 29°07' W 094°35'0 0.0
2018-May-16 11:26N 29°07' W 094°35'0 0.1
2018-May-16 10:50N 29°07' W 094°35'0 0.0
2018-May-16 10:29N 29°07' W 094°35'0 0.0
2018-May-16 09:56N 29°07' W 094°35'0 0.0
2018-May-16 09:26N 29°07' W 094°35'0 0.0
2018-May-16 08:59N 29°07' W 094°35'0 0.0
2018-May-16 08:29N 29°07' W 094°35'0 0.0
2018-May-16 07:59N 29°07' W 094°35'0 0.0
2018-May-16 07:29N 29°07' W 094°35'0 0.0
2018-May-16 06:59N 29°07' W 094°35'0 0.0
2018-May-16 06:29N 29°07' W 094°35'0 0.0
2018-May-16 05:56N 29°07' W 094°35'0 0.1
2018-May-16 05:29N 29°07' W 094°35'0 0.1
2018-May-16 04:59N 29°07' W 094°35'0 0.1
2018-May-16 04:26N 29°07' W 094°35'0 0.0
2018-May-16 03:59N 29°07' W 094°35'0 0.1
2018-May-16 03:29N 29°07' W 094°35'0 0.1
2018-May-16 02:59N 29°07' W 094°35'0 0.0
2018-May-16 02:26N 29°07' W 094°35'0 0.0
2018-May-16 01:59N 29°07' W 094°35'0 0.0
2018-May-16 01:29N 29°07' W 094°35'0 0.0
2018-May-16 00:59N 29°07' W 094°35'0 0.0
2018-May-16 00:29N 29°07' W 094°35'0 0.0
2018-May-15 23:59N 29°07' W 094°35'0 0.0
2018-May-15 23:26N 29°07' W 094°35'0 0.0
2018-May-15 22:59N 29°07' W 094°35'0 0.0
2018-May-15 22:29N 29°07' W 094°35'0 0.0
2018-May-15 21:26N 29°07' W 094°35'0 0.0
2018-May-15 20:47N 29°07' W 094°35'0 0.0
2018-May-15 20:29N 29°07' W 094°35'0 0.0
2018-May-15 19:59N 29°07' W 094°35'0 0.0
2018-May-15 19:29N 29°07' W 094°35'0 0.0
2018-May-15 18:59N 29°07' W 094°35'0 0.0
2018-May-15 17:41N 29°07' W 094°35'0 0.0
2018-May-15 17:20N 29°07' W 094°35'0 0.0
2018-May-15 16:59N 29°07' W 094°35'0 0.0
2018-May-15 16:29N 29°07' W 094°35'0 0.0
2018-May-15 15:59N 29°07' W 094°35'0 0.0
2018-May-15 15:29N 29°07' W 094°35'0 0.0
2018-May-15 14:53N 29°07' W 094°35'0 0.0
2018-May-15 14:26N 29°07' W 094°35'0 0.0
2018-May-15 13:59N 29°07' W 094°35'0 0.0
2018-May-15 13:29N 29°07' W 094°35'0 0.0
2018-May-15 12:59N 29°07' W 094°35'0 0.0
2018-May-15 12:26N 29°07' W 094°35'  
Track history (hours):
 
Tides and Currents Weather Stations Pressure Air Temp Water Temp Dewpoint Dewpoint Depression Visibility Wind Speed Wind Dir Waves Ship Positions

Eagle Kuching

Last reported at 2018-May-25 12:06 UTC. Time now 2018-May-25 14:50 UTC.
Position N 29°24' W 093°38'.

Length 243 m; draft 8.8 m.

Type: Tanker. MMSI: 565108000.

Date/timePositionNaut miles runAvg speedWind from/ knotsBaromVisibWave heightAir tempDewpointWater temp
2018-May-25 12:06N 29°24' W 093°38'0 0.2
2018-May-25 12:00N 29°24' W 093°38'0 0.1
2018-May-25 11:29N 29°24' W 093°38'1 2.3
2018-May-25 11:00N 29°23' W 093°39'3 6.4
2018-May-25 10:30N 29°20' W 093°40'711.1
2018-May-25 09:50N 29°13' W 093°40'3 0.1
2018-May-23 19:33N 29°10' W 093°42'112.4
2018-May-23 19:26N 29°11' W 093°41'1111.3
2018-May-23 18:30N 29°22' W 093°40'5 9.4
2018-May-23 17:58N 29°27' W 093°40'510.0
2018-May-23 17:30N 29°31' W 093°42'611.7
2018-May-23 17:00N 29°35' W 093°47'510.1
2018-May-23 16:30N 29°40' W 093°50'4 7.9
2018-May-23 16:00N 29°43' W 093°52'4 7.0
2018-May-23 15:30N 29°46' W 093°54'3 6.9
2018-May-23 15:00N 29°48' W 093°57'3 6.3
2018-May-23 14:30N 29°51' W 093°57'3 6.0
2018-May-23 14:00N 29°54' W 093°54'3 6.4
2018-May-23 13:30N 29°56' W 093°52'3 5.3
2018-May-23 13:00N 29°59' W 093°52'3 5.5
2018-May-23 12:30N 29°59' W 093°55'3 5.1
2018-May-23 12:00N 30°01' W 093°58'2 3.4
2018-May-23 11:30N 30°01' W 093°60'0 0.1
2018-May-23 11:00N 30°01' W 093°60'0 0.0
2018-May-23 10:30N 30°01' W 093°60'0 0.0
2018-May-23 10:00N 30°01' W 093°60'0 0.0
2018-May-23 09:30N 30°01' W 093°60'0 0.0
2018-May-23 09:00N 30°01' W 093°60'0 0.0
2018-May-23 08:30N 30°01' W 093°60'0 0.0
2018-May-23 08:00N 30°01' W 093°60'0 0.0
2018-May-23 07:30N 30°01' W 093°60'0 0.0
2018-May-23 07:00N 30°01' W 093°60'0 0.0
2018-May-23 06:30N 30°01' W 093°60'0 0.0
2018-May-23 06:00N 30°01' W 093°60'0 0.0
2018-May-23 05:30N 30°01' W 093°60'0 0.0
2018-May-23 05:00N 30°01' W 093°60'0 0.0
2018-May-23 04:30N 30°01' W 093°60'0 0.0
2018-May-23 04:00N 30°01' W 093°60'0 0.0
2018-May-23 03:30N 30°01' W 093°60'0 0.0
2018-May-23 03:00N 30°01' W 093°60'0 0.0
2018-May-23 02:30N 30°01' W 093°60'0 0.0
2018-May-23 02:00N 30°01' W 093°60'0 0.0
2018-May-23 01:30N 30°01' W 093°60'0 0.0
2018-May-23 01:00N 30°01' W 093°60'0 0.0
2018-May-23 00:30N 30°01' W 093°60'0 0.0
2018-May-23 00:00N 30°01' W 093°60'0 0.0
2018-May-22 23:30N 30°01' W 093°60'0 0.0
2018-May-22 23:00N 30°01' W 093°60'0 0.0
2018-May-22 22:30N 30°01' W 093°60'0 0.0
2018-May-22 22:00N 30°01' W 093°60'0 0.0
2018-May-22 21:27N 30°01' W 093°60'0 0.0
2018-May-22 21:00N 30°01' W 093°60'0 0.0
2018-May-22 20:30N 30°01' W 093°60'0 0.0
2018-May-22 20:00N 30°01' W 093°60'0 0.0
2018-May-22 19:30N 30°01' W 093°60'0 0.0
2018-May-22 19:00N 30°01' W 093°60'0 0.0
2018-May-22 18:30N 30°01' W 093°60'0 0.0
2018-May-22 18:00N 30°01' W 093°60'0 0.0
2018-May-22 17:30N 30°01' W 093°60'0 0.0
2018-May-22 17:00N 30°01' W 093°60'0 0.0
2018-May-22 16:30N 30°01' W 093°60'0 0.0
2018-May-22 16:00N 30°01' W 093°60'0 0.0
2018-May-22 15:30N 30°01' W 093°60'0 0.0
2018-May-22 14:57N 30°01' W 093°60'0 0.0
2018-May-22 14:30N 30°01' W 093°60'0 0.0
2018-May-22 14:00N 30°01' W 093°60'0 0.0
2018-May-22 13:30N 30°01' W 093°60'0 0.0
2018-May-22 13:00N 30°01' W 093°60'0 0.0
2018-May-22 12:30N 30°01' W 093°60'0 0.0
2018-May-22 12:00N 30°01' W 093°60'0 0.0
2018-May-22 11:30N 30°01' W 093°60'0 0.0
2018-May-22 10:54N 30°01' W 093°60'0 0.0
2018-May-22 10:30N 30°01' W 093°60'0 0.0
2018-May-22 10:00N 30°01' W 093°60'0 0.0
2018-May-22 09:30N 30°01' W 093°60'0 0.0
2018-May-22 09:00N 30°01' W 093°60'0 0.0
2018-May-22 08:27N 30°01' W 093°60'0 0.0
2018-May-22 08:00N 30°01' W 093°60'0 0.0
2018-May-22 07:30N 30°01' W 093°60'0 0.0
2018-May-22 07:00N 30°01' W 093°60'0 0.0
2018-May-22 06:30N 30°01' W 093°60'0 0.0
2018-May-22 06:00N 30°01' W 093°60'0 0.0
2018-May-22 05:30N 30°01' W 093°60'0 0.0
2018-May-22 05:00N 30°01' W 093°60'0 0.0
2018-May-22 04:30N 30°01' W 093°60'0 0.0
2018-May-22 04:00N 30°01' W 093°60'0 0.0
2018-May-22 03:30N 30°01' W 093°60'0 0.0
2018-May-22 02:57N 30°01' W 093°60'0 0.0
2018-May-22 02:30N 30°01' W 093°60'0 0.0
2018-May-22 02:00N 30°01' W 093°60'0 0.0
2018-May-22 01:30N 30°01' W 093°60'0 0.0
2018-May-22 01:00N 30°01' W 093°60'0 0.0
2018-May-22 00:30N 30°01' W 093°60'0 0.0
2018-May-22 00:00N 30°01' W 093°60'0 0.0
2018-May-21 23:30N 30°01' W 093°60'0 0.0
2018-May-21 23:00N 30°01' W 093°60'0 0.1
2018-May-21 22:30N 30°01' W 093°60'2 3.4
2018-May-21 22:00N 30°01' W 093°58'3 5.6
2018-May-21 21:30N 29°59' W 093°55'3 6.4
2018-May-21 21:00N 29°59' W 093°52'3 5.7
2018-May-21 20:30N 29°56' W 093°52'3 6.6
2018-May-21 20:01N 29°53' W 093°55'3 6.5
2018-May-21 19:30N 29°51' W 093°57'4 8.1
2018-May-21 19:00N 29°47' W 093°57'4 8.2
2018-May-21 18:30N 29°44' W 093°53'4 8.9
2018-May-21 18:00N 29°41' W 093°50'510.4
2018-May-21 17:30N 29°36' W 093°48'3 5.6
2018-May-21 17:00N 29°34' W 093°46'1 1.8
2018-May-21 16:30N 29°33' W 093°45'1 1.4
2018-May-21 16:00N 29°33' W 093°45'2 4.5
2018-May-21 15:31N 29°33' W 093°43'1 1.3
2018-May-21 14:54N 29°34' W 093°43'0 0.0
2018-May-21 14:27N 29°34' W 093°43'0 0.0
2018-May-21 14:00N 29°34' W 093°43'0 0.0
2018-May-21 13:24N 29°34' W 093°43'0 0.0
2018-May-21 12:57N 29°34' W 093°43'0 0.0
2018-May-21 12:27N 29°34' W 093°43'0 0.0
2018-May-21 12:00N 29°34' W 093°43'0 0.0
2018-May-21 11:30N 29°34' W 093°43'0 0.0
2018-May-21 11:00N 29°34' W 093°43'0 0.0
2018-May-21 10:27N 29°34' W 093°43'0 0.0
2018-May-21 09:57N 29°34' W 093°43'0 0.0
2018-May-21 09:27N 29°34' W 093°43'0 0.0
2018-May-21 09:00N 29°34' W 093°43'0 0.0
2018-May-21 08:27N 29°34' W 093°43'0 0.0
2018-May-21 08:00N 29°34' W 093°43'0 0.0
2018-May-21 07:27N 29°34' W 093°43'0 0.0
2018-May-21 07:00N 29°34' W 093°43'0 0.0
2018-May-21 06:27N 29°34' W 093°43'0 0.0
2018-May-21 06:00N 29°34' W 093°43'0 0.0
2018-May-21 05:27N 29°34' W 093°43'0 0.0
2018-May-21 05:00N 29°34' W 093°43'0 0.1
2018-May-21 04:30N 29°34' W 093°43'0 0.0
2018-May-21 04:00N 29°34' W 093°43'0 0.0
2018-May-21 03:27N 29°34' W 093°43'0 0.0
2018-May-21 03:00N 29°34' W 093°43'0 0.2
2018-May-21 02:22N 29°34' W 093°43'0 0.4
2018-May-21 02:00N 29°33' W 093°43'1 2.2
2018-May-21 01:30N 29°33' W 093°44'4 7.8
2018-May-21 01:00N 29°31' W 093°48'612.3
2018-May-21 00:30N 29°29' W 093°55'612.0
2018-May-21 00:00N 29°26' W 094°01'713.5
2018-May-20 23:30N 29°21' W 094°07'2411.4
2018-May-20 21:22N 29°14' W 094°33'512.9
2018-May-20 21:00N 29°18' W 094°37'611.8
2018-May-20 20:30N 29°21' W 094°42'510.4
2018-May-20 20:00N 29°22' W 094°48'611.1
2018-May-20 19:29N 29°27' W 094°51'511.0
2018-May-20 19:00N 29°32' W 094°54'611.2
2018-May-20 18:30N 29°37' W 094°57'510.0
2018-May-20 18:00N 29°41' W 094°59'3 0.1
2018-May-18 16:26N 29°44' W 095°01'0 0.0
2018-May-18 16:00N 29°44' W 095°01'0 0.2
2018-May-18 15:30N 29°44' W 095°01'1 2.8
2018-May-18 15:00N 29°42' W 095°01'4 8.3
2018-May-18 14:30N 29°39' W 094°58'4 8.8
2018-May-18 14:00N 29°35' W 094°56'510.2
2018-May-18 13:30N 29°31' W 094°53'611.6
2018-May-18 13:00N 29°26' W 094°50'611.0
2018-May-18 12:30N 29°21' W 094°47'611.4
2018-May-18 12:00N 29°20' W 094°40'510.3
2018-May-18 11:30N 29°17' W 094°35'3 7.0
2018-May-18 11:00N 29°15' W 094°32'2 4.8
2018-May-18 10:30N 29°13' W 094°30'5 9.9
2018-May-18 10:00N 29°09' W 094°33'2 4.8
2018-May-18 09:30N 29°07' W 094°35'0 0.2
2018-May-18 08:59N 29°07' W 094°35'0 0.0
2018-May-18 08:29N 29°07' W 094°35'0 0.0
2018-May-18 07:59N 29°07' W 094°35'0 0.0
2018-May-18 07:29N 29°07' W 094°35'0 0.0
2018-May-18 06:59N 29°07' W 094°35'0 0.0
2018-May-18 06:29N 29°07' W 094°35'0 0.0
2018-May-18 05:59N 29°07' W 094°35'0 0.0
2018-May-18 05:29N 29°07' W 094°35'0 0.0
2018-May-18 04:59N 29°07' W 094°35'0 0.0
2018-May-18 04:29N 29°07' W 094°35'0 0.0
2018-May-18 03:59N 29°07' W 094°35'0 0.0
2018-May-18 03:26N 29°07' W 094°35'0 0.0
2018-May-18 02:56N 29°07' W 094°35'0 0.1
2018-May-18 02:29N 29°07' W 094°35'0 0.0
2018-May-18 01:59N 29°07' W 094°35'0 0.0
2018-May-18 01:26N 29°07' W 094°35'0 0.0
2018-May-18 00:59N 29°07' W 094°35'0 0.0
2018-May-18 00:29N 29°07' W 094°35'0 0.0
2018-May-17 23:59N 29°07' W 094°35'0 0.0
2018-May-17 23:29N 29°07' W 094°35'0 0.0
2018-May-17 22:59N 29°07' W 094°35'0 0.0
2018-May-17 22:26N 29°07' W 094°35'0 0.0
2018-May-17 21:59N 29°07' W 094°35'0 0.0
2018-May-17 21:29N 29°07' W 094°35'0 0.0
2018-May-17 20:59N 29°07' W 094°35'0 0.0
2018-May-17 20:26N 29°07' W 094°35'0 0.0
2018-May-17 19:47N 29°07' W 094°35'0 0.0
2018-May-17 19:29N 29°07' W 094°35'0 0.0
2018-May-17 18:59N 29°07' W 094°35'0 0.0
2018-May-17 18:23N 29°07' W 094°35'0 0.0
2018-May-17 17:35N 29°07' W 094°35'0 0.0
2018-May-17 17:20N 29°07' W 094°35'0 0.0
2018-May-17 15:08N 29°07' W 094°35'0 0.0
2018-May-17 14:53N 29°07' W 094°35'0 0.0
2018-May-17 14:17N 29°07' W 094°35'0 0.0
2018-May-17 13:59N 29°07' W 094°35'0 0.0
2018-May-17 12:11N 29°07' W 094°35'0 0.1
2018-May-17 11:44N 29°07' W 094°35'0 0.0
2018-May-17 11:26N 29°07' W 094°35'0 0.0
2018-May-17 06:56N 29°07' W 094°35'0 0.0
2018-May-17 06:26N 29°07' W 094°35'0 0.0
2018-May-17 05:59N 29°07' W 094°35'0 0.0
2018-May-17 05:23N 29°07' W 094°35'0 0.0
2018-May-17 04:59N 29°07' W 094°35'0 0.0
2018-May-17 04:26N 29°07' W 094°35'0 0.0
2018-May-17 03:59N 29°07' W 094°35'0 0.0
2018-May-17 03:29N 29°07' W 094°35'0 0.0
2018-May-17 02:53N 29°07' W 094°35'0 0.0
2018-May-17 02:29N 29°07' W 094°35'0 0.0
2018-May-17 01:59N 29°07' W 094°35'0 0.0
2018-May-17 01:29N 29°07' W 094°35'0 0.0
2018-May-17 00:59N 29°07' W 094°35'0 0.0
2018-May-17 00:29N 29°07' W 094°35'0 0.0
2018-May-16 23:59N 29°07' W 094°35'0 0.0
2018-May-16 23:29N 29°07' W 094°35'0 0.0
2018-May-16 22:59N 29°07' W 094°35'0 0.0
2018-May-16 22:29N 29°07' W 094°35'0 0.0
2018-May-16 21:59N 29°07' W 094°35'0 0.0
2018-May-16 21:29N 29°07' W 094°35'0 0.0
2018-May-16 20:59N 29°07' W 094°35'0 0.0
2018-May-16 20:29N 29°07' W 094°35'0 0.0
2018-May-16 19:59N 29°07' W 094°35'0 0.0
2018-May-16 19:29N 29°07' W 094°35'0 0.0
2018-May-16 18:38N 29°07' W 094°35'0 0.1
2018-May-16 18:29N 29°07' W 094°35'0 0.0
2018-May-16 17:56N 29°07' W 094°35'0 0.0
2018-May-16 17:08N 29°07' W 094°35'0 0.0
2018-May-16 16:38N 29°07' W 094°35'0 0.1
2018-May-16 16:29N 29°07' W 094°35'0 0.0
2018-May-16 15:59N 29°07' W 094°35'0 0.1
2018-May-16 15:29N 29°07' W 094°35'0 0.0
2018-May-16 14:59N 29°07' W 094°35'0 0.0
2018-May-16 14:29N 29°07' W 094°35'0 0.0
2018-May-16 13:56N 29°07' W 094°35'0 0.0
2018-May-16 13:29N 29°07' W 094°35'0 0.0
2018-May-16 12:59N 29°07' W 094°35'0 0.0
2018-May-16 12:29N 29°07' W 094°35'0 0.0
2018-May-16 11:59N 29°07' W 094°35'0 0.0
2018-May-16 11:26N 29°07' W 094°35'0 0.1
2018-May-16 10:50N 29°07' W 094°35'0 0.0
2018-May-16 10:29N 29°07' W 094°35'0 0.0
2018-May-16 09:56N 29°07' W 094°35'0 0.0
2018-May-16 09:26N 29°07' W 094°35'0 0.0
2018-May-16 08:59N 29°07' W 094°35'0 0.0
2018-May-16 08:29N 29°07' W 094°35'0 0.0
2018-May-16 07:59N 29°07' W 094°35'0 0.0
2018-May-16 07:29N 29°07' W 094°35'0 0.0
2018-May-16 06:59N 29°07' W 094°35'0 0.0
2018-May-16 06:29N 29°07' W 094°35'0 0.0
2018-May-16 05:56N 29°07' W 094°35'0 0.1
2018-May-16 05:29N 29°07' W 094°35'0 0.1
2018-May-16 04:59N 29°07' W 094°35'0 0.1
2018-May-16 04:26N 29°07' W 094°35'0 0.0
2018-May-16 03:59N 29°07' W 094°35'0 0.1
2018-May-16 03:29N 29°07' W 094°35'0 0.1
2018-May-16 02:59N 29°07' W 094°35'0 0.0
2018-May-16 02:26N 29°07' W 094°35'0 0.0
2018-May-16 01:59N 29°07' W 094°35'0 0.0
2018-May-16 01:29N 29°07' W 094°35'0 0.0
2018-May-16 00:59N 29°07' W 094°35'0 0.0
2018-May-16 00:29N 29°07' W 094°35'0 0.0
2018-May-15 23:59N 29°07' W 094°35'0 0.0
2018-May-15 23:26N 29°07' W 094°35'0 0.0
2018-May-15 22:59N 29°07' W 094°35'0 0.0
2018-May-15 22:29N 29°07' W 094°35'0 0.0
2018-May-15 21:26N 29°07' W 094°35'0 0.0
2018-May-15 20:47N 29°07' W 094°35'0 0.0
2018-May-15 20:29N 29°07' W 094°35'0 0.0
2018-May-15 19:59N 29°07' W 094°35'0 0.0
2018-May-15 19:29N 29°07' W 094°35'0 0.0
2018-May-15 18:59N 29°07' W 094°35'0 0.0
2018-May-15 17:41N 29°07' W 094°35'0 0.0
2018-May-15 17:20N 29°07' W 094°35'0 0.0
2018-May-15 16:59N 29°07' W 094°35'0 0.0
2018-May-15 16:29N 29°07' W 094°35'0 0.0
2018-May-15 15:59N 29°07' W 094°35'0 0.0
2018-May-15 15:29N 29°07' W 094°35'0 0.0
2018-May-15 14:53N 29°07' W 094°35'0 0.0
2018-May-15 14:26N 29°07' W 094°35'0 0.0
2018-May-15 13:59N 29°07' W 094°35'0 0.0
2018-May-15 13:29N 29°07' W 094°35'0 0.0
2018-May-15 12:59N 29°07' W 094°35'0 0.0
2018-May-15 12:26N 29°07' W 094°35'  

Dump ship's entire track history